<?xml version="1.0" encoding="UTF-8" standalone="no" ?>
<gpx xmlns="http://www.topografix.com/GPX/1/1" xmlns:xsi="http://www.w3.org/2001/XMLSchema-instance" xsi:schemaLocation="http://www.topografix.com/GPX/1/1 http://www.topografix.com/GPX/1/1/gpx.xsd" version="1.1" creator="VisuGPX - https://www.visugpx.com">
  <metadata>
    <name>Marche nordique - Maureucourt - Vauréal - Jouy Le Moutier</name>
  </metadata>
  <trk>
    <name><![CDATA[Randonnée du 01/02/2022 à 09:50]]></name>
    <trkseg>
      <trkpt lat="48.99948" lon="2.0608">
        <ele>26</ele>
        <time>2022-02-01T09:50:44+01:00</time>
      </trkpt>
      <trkpt lat="48.99926" lon="2.0607">
        <ele>26</ele>
        <time>2022-02-01T09:52:01+01:00</time>
      </trkpt>
      <trkpt lat="48.99912" lon="2.06039">
        <ele>27</ele>
        <time>2022-02-01T09:52:28+01:00</time>
      </trkpt>
      <trkpt lat="48.99906" lon="2.06006">
        <ele>27</ele>
        <time>2022-02-01T09:52:44+01:00</time>
      </trkpt>
      <trkpt lat="48.99901" lon="2.05969">
        <ele>29</ele>
        <time>2022-02-01T09:53:05+01:00</time>
      </trkpt>
      <trkpt lat="48.99891" lon="2.05938">
        <ele>31</ele>
        <time>2022-02-01T09:53:21+01:00</time>
      </trkpt>
      <trkpt lat="48.99886" lon="2.05903">
        <ele>32</ele>
        <time>2022-02-01T09:53:39+01:00</time>
      </trkpt>
      <trkpt lat="48.99881" lon="2.0587">
        <ele>33</ele>
        <time>2022-02-01T09:54:00+01:00</time>
      </trkpt>
      <trkpt lat="48.99876" lon="2.05836">
        <ele>34</ele>
        <time>2022-02-01T09:54:16+01:00</time>
      </trkpt>
      <trkpt lat="48.9987" lon="2.05802">
        <ele>37</ele>
        <time>2022-02-01T09:54:40+01:00</time>
      </trkpt>
      <trkpt lat="48.99867" lon="2.05768">
        <ele>38</ele>
        <time>2022-02-01T09:54:55+01:00</time>
      </trkpt>
      <trkpt lat="48.99859" lon="2.05736">
        <ele>40</ele>
        <time>2022-02-01T09:55:19+01:00</time>
      </trkpt>
      <trkpt lat="48.99851" lon="2.05703">
        <ele>43</ele>
        <time>2022-02-01T09:55:37+01:00</time>
      </trkpt>
      <trkpt lat="48.99847" lon="2.05668">
        <ele>46</ele>
        <time>2022-02-01T09:55:56+01:00</time>
      </trkpt>
      <trkpt lat="48.99841" lon="2.05635">
        <ele>48</ele>
        <time>2022-02-01T09:56:32+01:00</time>
      </trkpt>
      <trkpt lat="48.99827" lon="2.05608">
        <ele>51</ele>
        <time>2022-02-01T09:56:53+01:00</time>
      </trkpt>
      <trkpt lat="48.99808" lon="2.05588">
        <ele>54</ele>
        <time>2022-02-01T09:57:13+01:00</time>
      </trkpt>
      <trkpt lat="48.99786" lon="2.05578">
        <ele>55</ele>
        <time>2022-02-01T09:57:34+01:00</time>
      </trkpt>
      <trkpt lat="48.99765" lon="2.05593">
        <ele>54</ele>
        <time>2022-02-01T09:57:57+01:00</time>
      </trkpt>
      <trkpt lat="48.99742" lon="2.05594">
        <ele>55</ele>
        <time>2022-02-01T09:58:17+01:00</time>
      </trkpt>
      <trkpt lat="48.99718" lon="2.05601">
        <ele>55</ele>
        <time>2022-02-01T09:58:36+01:00</time>
      </trkpt>
      <trkpt lat="48.99696" lon="2.05608">
        <ele>55</ele>
        <time>2022-02-01T09:58:54+01:00</time>
      </trkpt>
      <trkpt lat="48.99676" lon="2.05625">
        <ele>52</ele>
        <time>2022-02-01T09:59:31+01:00</time>
      </trkpt>
      <trkpt lat="48.99654" lon="2.05635">
        <ele>49</ele>
        <time>2022-02-01T09:59:51+01:00</time>
      </trkpt>
      <trkpt lat="48.99648" lon="2.05669">
        <ele>44</ele>
        <time>2022-02-01T10:00:28+01:00</time>
      </trkpt>
      <trkpt lat="48.99657" lon="2.05701">
        <ele>43</ele>
        <time>2022-02-01T10:00:44+01:00</time>
      </trkpt>
      <trkpt lat="48.99648" lon="2.05733">
        <ele>41</ele>
        <time>2022-02-01T10:01:05+01:00</time>
      </trkpt>
      <trkpt lat="48.99634" lon="2.05759">
        <ele>39</ele>
        <time>2022-02-01T10:01:24+01:00</time>
      </trkpt>
      <trkpt lat="48.99617" lon="2.05783">
        <ele>39</ele>
        <time>2022-02-01T10:01:37+01:00</time>
      </trkpt>
      <trkpt lat="48.99594" lon="2.05777">
        <ele>42</ele>
        <time>2022-02-01T10:01:55+01:00</time>
      </trkpt>
      <trkpt lat="48.99579" lon="2.0575">
        <ele>42</ele>
        <time>2022-02-01T10:02:14+01:00</time>
      </trkpt>
      <trkpt lat="48.99564" lon="2.05724">
        <ele>44</ele>
        <time>2022-02-01T10:02:31+01:00</time>
      </trkpt>
      <trkpt lat="48.99544" lon="2.05706">
        <ele>46</ele>
        <time>2022-02-01T10:02:51+01:00</time>
      </trkpt>
      <trkpt lat="48.99525" lon="2.05687">
        <ele>48</ele>
        <time>2022-02-01T10:03:22+01:00</time>
      </trkpt>
      <trkpt lat="48.99504" lon="2.05678">
        <ele>50</ele>
        <time>2022-02-01T10:03:39+01:00</time>
      </trkpt>
      <trkpt lat="48.99486" lon="2.05656">
        <ele>53</ele>
        <time>2022-02-01T10:04:00+01:00</time>
      </trkpt>
      <trkpt lat="48.9948" lon="2.05689">
        <ele>54</ele>
        <time>2022-02-01T10:04:38+01:00</time>
      </trkpt>
      <trkpt lat="48.99483" lon="2.05723">
        <ele>54</ele>
        <time>2022-02-01T10:04:56+01:00</time>
      </trkpt>
      <trkpt lat="48.99468" lon="2.05748">
        <ele>54</ele>
        <time>2022-02-01T10:05:26+01:00</time>
      </trkpt>
      <trkpt lat="48.99445" lon="2.05749">
        <ele>56</ele>
        <time>2022-02-01T10:05:42+01:00</time>
      </trkpt>
      <trkpt lat="48.99422" lon="2.0575">
        <ele>56</ele>
        <time>2022-02-01T10:06:01+01:00</time>
      </trkpt>
      <trkpt lat="48.99398" lon="2.0575">
        <ele>56</ele>
        <time>2022-02-01T10:06:23+01:00</time>
      </trkpt>
      <trkpt lat="48.99374" lon="2.05753">
        <ele>57</ele>
        <time>2022-02-01T10:06:41+01:00</time>
      </trkpt>
      <trkpt lat="48.99351" lon="2.05757">
        <ele>57</ele>
        <time>2022-02-01T10:06:57+01:00</time>
      </trkpt>
      <trkpt lat="48.99328" lon="2.05759">
        <ele>58</ele>
        <time>2022-02-01T10:07:18+01:00</time>
      </trkpt>
      <trkpt lat="48.99305" lon="2.05763">
        <ele>58</ele>
        <time>2022-02-01T10:07:38+01:00</time>
      </trkpt>
      <trkpt lat="48.99284" lon="2.05777">
        <ele>58</ele>
        <time>2022-02-01T10:07:51+01:00</time>
      </trkpt>
      <trkpt lat="48.99262" lon="2.05784">
        <ele>58</ele>
        <time>2022-02-01T10:08:09+01:00</time>
      </trkpt>
      <trkpt lat="48.99253" lon="2.05751">
        <ele>60</ele>
        <time>2022-02-01T10:08:45+01:00</time>
      </trkpt>
      <trkpt lat="48.9926" lon="2.05718">
        <ele>63</ele>
        <time>2022-02-01T10:09:09+01:00</time>
      </trkpt>
      <trkpt lat="48.99266" lon="2.05684">
        <ele>64</ele>
        <time>2022-02-01T10:09:27+01:00</time>
      </trkpt>
      <trkpt lat="48.99267" lon="2.0565">
        <ele>65</ele>
        <time>2022-02-01T10:09:45+01:00</time>
      </trkpt>
      <trkpt lat="48.99265" lon="2.05615">
        <ele>67</ele>
        <time>2022-02-01T10:10:06+01:00</time>
      </trkpt>
      <trkpt lat="48.9927" lon="2.05581">
        <ele>68</ele>
        <time>2022-02-01T10:10:25+01:00</time>
      </trkpt>
      <trkpt lat="48.99269" lon="2.05545">
        <ele>68</ele>
        <time>2022-02-01T10:10:43+01:00</time>
      </trkpt>
      <trkpt lat="48.99267" lon="2.05509">
        <ele>70</ele>
        <time>2022-02-01T10:11:02+01:00</time>
      </trkpt>
      <trkpt lat="48.99263" lon="2.05475">
        <ele>71</ele>
        <time>2022-02-01T10:11:19+01:00</time>
      </trkpt>
      <trkpt lat="48.99259" lon="2.05441">
        <ele>71</ele>
        <time>2022-02-01T10:11:36+01:00</time>
      </trkpt>
      <trkpt lat="48.99257" lon="2.05407">
        <ele>72</ele>
        <time>2022-02-01T10:11:57+01:00</time>
      </trkpt>
      <trkpt lat="48.99255" lon="2.05372">
        <ele>72</ele>
        <time>2022-02-01T10:12:13+01:00</time>
      </trkpt>
      <trkpt lat="48.99248" lon="2.05338">
        <ele>71</ele>
        <time>2022-02-01T10:12:33+01:00</time>
      </trkpt>
      <trkpt lat="48.99241" lon="2.05306">
        <ele>73</ele>
        <time>2022-02-01T10:12:49+01:00</time>
      </trkpt>
      <trkpt lat="48.99229" lon="2.05274">
        <ele>74</ele>
        <time>2022-02-01T10:13:10+01:00</time>
      </trkpt>
      <trkpt lat="48.99218" lon="2.05241">
        <ele>74</ele>
        <time>2022-02-01T10:13:27+01:00</time>
      </trkpt>
      <trkpt lat="48.99209" lon="2.0521">
        <ele>75</ele>
        <time>2022-02-01T10:13:46+01:00</time>
      </trkpt>
      <trkpt lat="48.99199" lon="2.05179">
        <ele>77</ele>
        <time>2022-02-01T10:14:05+01:00</time>
      </trkpt>
      <trkpt lat="48.99187" lon="2.05149">
        <ele>78</ele>
        <time>2022-02-01T10:14:24+01:00</time>
      </trkpt>
      <trkpt lat="48.99177" lon="2.05118">
        <ele>80</ele>
        <time>2022-02-01T10:14:42+01:00</time>
      </trkpt>
      <trkpt lat="48.99164" lon="2.05088">
        <ele>81</ele>
        <time>2022-02-01T10:15:02+01:00</time>
      </trkpt>
      <trkpt lat="48.99155" lon="2.05055">
        <ele>82</ele>
        <time>2022-02-01T10:15:23+01:00</time>
      </trkpt>
      <trkpt lat="48.99145" lon="2.05024">
        <ele>83</ele>
        <time>2022-02-01T10:15:41+01:00</time>
      </trkpt>
      <trkpt lat="48.99133" lon="2.04995">
        <ele>86</ele>
        <time>2022-02-01T10:16:00+01:00</time>
      </trkpt>
      <trkpt lat="48.99125" lon="2.04959">
        <ele>86</ele>
        <time>2022-02-01T10:16:30+01:00</time>
      </trkpt>
      <trkpt lat="48.99117" lon="2.04926">
        <ele>87</ele>
        <time>2022-02-01T10:16:52+01:00</time>
      </trkpt>
      <trkpt lat="48.99109" lon="2.04893">
        <ele>89</ele>
        <time>2022-02-01T10:17:14+01:00</time>
      </trkpt>
      <trkpt lat="48.99101" lon="2.0486">
        <ele>92</ele>
        <time>2022-02-01T10:17:34+01:00</time>
      </trkpt>
      <trkpt lat="48.99095" lon="2.04826">
        <ele>93</ele>
        <time>2022-02-01T10:17:56+01:00</time>
      </trkpt>
      <trkpt lat="48.9909" lon="2.04793">
        <ele>94</ele>
        <time>2022-02-01T10:18:14+01:00</time>
      </trkpt>
      <trkpt lat="48.99077" lon="2.04765">
        <ele>95</ele>
        <time>2022-02-01T10:18:41+01:00</time>
      </trkpt>
      <trkpt lat="48.99067" lon="2.04733">
        <ele>97</ele>
        <time>2022-02-01T10:18:59+01:00</time>
      </trkpt>
      <trkpt lat="48.99054" lon="2.04705">
        <ele>98</ele>
        <time>2022-02-01T10:19:22+01:00</time>
      </trkpt>
      <trkpt lat="48.99045" lon="2.04672">
        <ele>98</ele>
        <time>2022-02-01T10:19:44+01:00</time>
      </trkpt>
      <trkpt lat="48.99039" lon="2.04639">
        <ele>100</ele>
        <time>2022-02-01T10:20:33+01:00</time>
      </trkpt>
      <trkpt lat="48.99031" lon="2.04606">
        <ele>100</ele>
        <time>2022-02-01T10:21:50+01:00</time>
      </trkpt>
      <trkpt lat="48.99023" lon="2.04572">
        <ele>103</ele>
        <time>2022-02-01T10:22:09+01:00</time>
      </trkpt>
      <trkpt lat="48.99018" lon="2.04538">
        <ele>101</ele>
        <time>2022-02-01T10:22:28+01:00</time>
      </trkpt>
      <trkpt lat="48.9901" lon="2.04504">
        <ele>101</ele>
        <time>2022-02-01T10:22:46+01:00</time>
      </trkpt>
      <trkpt lat="48.99004" lon="2.0447">
        <ele>99</ele>
        <time>2022-02-01T10:23:05+01:00</time>
      </trkpt>
      <trkpt lat="48.98998" lon="2.04437">
        <ele>101</ele>
        <time>2022-02-01T10:23:21+01:00</time>
      </trkpt>
      <trkpt lat="48.98993" lon="2.04402">
        <ele>101</ele>
        <time>2022-02-01T10:23:38+01:00</time>
      </trkpt>
      <trkpt lat="48.98988" lon="2.04366">
        <ele>101</ele>
        <time>2022-02-01T10:23:56+01:00</time>
      </trkpt>
      <trkpt lat="48.98981" lon="2.04334">
        <ele>102</ele>
        <time>2022-02-01T10:24:15+01:00</time>
      </trkpt>
      <trkpt lat="48.98976" lon="2.04299">
        <ele>103</ele>
        <time>2022-02-01T10:24:34+01:00</time>
      </trkpt>
      <trkpt lat="48.9897" lon="2.04265">
        <ele>104</ele>
        <time>2022-02-01T10:24:52+01:00</time>
      </trkpt>
      <trkpt lat="48.98964" lon="2.0423">
        <ele>106</ele>
        <time>2022-02-01T10:25:10+01:00</time>
      </trkpt>
      <trkpt lat="48.98958" lon="2.04197">
        <ele>108</ele>
        <time>2022-02-01T10:25:30+01:00</time>
      </trkpt>
      <trkpt lat="48.98953" lon="2.04163">
        <ele>110</ele>
        <time>2022-02-01T10:25:52+01:00</time>
      </trkpt>
      <trkpt lat="48.98947" lon="2.0413">
        <ele>110</ele>
        <time>2022-02-01T10:26:10+01:00</time>
      </trkpt>
      <trkpt lat="48.98942" lon="2.04096">
        <ele>111</ele>
        <time>2022-02-01T10:26:29+01:00</time>
      </trkpt>
      <trkpt lat="48.98937" lon="2.04062">
        <ele>112</ele>
        <time>2022-02-01T10:26:48+01:00</time>
      </trkpt>
      <trkpt lat="48.98933" lon="2.04028">
        <ele>111</ele>
        <time>2022-02-01T10:27:12+01:00</time>
      </trkpt>
      <trkpt lat="48.98932" lon="2.03993">
        <ele>111</ele>
        <time>2022-02-01T10:27:34+01:00</time>
      </trkpt>
      <trkpt lat="48.98939" lon="2.0396">
        <ele>109</ele>
        <time>2022-02-01T10:27:54+01:00</time>
      </trkpt>
      <trkpt lat="48.98945" lon="2.03925">
        <ele>107</ele>
        <time>2022-02-01T10:28:13+01:00</time>
      </trkpt>
      <trkpt lat="48.98953" lon="2.03892">
        <ele>105</ele>
        <time>2022-02-01T10:28:33+01:00</time>
      </trkpt>
      <trkpt lat="48.98968" lon="2.03866">
        <ele>103</ele>
        <time>2022-02-01T10:28:51+01:00</time>
      </trkpt>
      <trkpt lat="48.98981" lon="2.03837">
        <ele>101</ele>
        <time>2022-02-01T10:29:10+01:00</time>
      </trkpt>
      <trkpt lat="48.9899" lon="2.03804">
        <ele>102</ele>
        <time>2022-02-01T10:29:29+01:00</time>
      </trkpt>
      <trkpt lat="48.98997" lon="2.0377">
        <ele>103</ele>
        <time>2022-02-01T10:29:48+01:00</time>
      </trkpt>
      <trkpt lat="48.99005" lon="2.03737">
        <ele>104</ele>
        <time>2022-02-01T10:30:06+01:00</time>
      </trkpt>
      <trkpt lat="48.99013" lon="2.03705">
        <ele>105</ele>
        <time>2022-02-01T10:30:24+01:00</time>
      </trkpt>
      <trkpt lat="48.99022" lon="2.03672">
        <ele>106</ele>
        <time>2022-02-01T10:30:43+01:00</time>
      </trkpt>
      <trkpt lat="48.9903" lon="2.03638">
        <ele>108</ele>
        <time>2022-02-01T10:31:02+01:00</time>
      </trkpt>
      <trkpt lat="48.99035" lon="2.03603">
        <ele>110</ele>
        <time>2022-02-01T10:31:22+01:00</time>
      </trkpt>
      <trkpt lat="48.99041" lon="2.0357">
        <ele>110</ele>
        <time>2022-02-01T10:31:42+01:00</time>
      </trkpt>
      <trkpt lat="48.99063" lon="2.0356">
        <ele>109</ele>
        <time>2022-02-01T10:33:15+01:00</time>
      </trkpt>
      <trkpt lat="48.99084" lon="2.03572">
        <ele>107</ele>
        <time>2022-02-01T10:33:38+01:00</time>
      </trkpt>
      <trkpt lat="48.99107" lon="2.03579">
        <ele>105</ele>
        <time>2022-02-01T10:33:59+01:00</time>
      </trkpt>
      <trkpt lat="48.99129" lon="2.03593">
        <ele>102</ele>
        <time>2022-02-01T10:34:22+01:00</time>
      </trkpt>
      <trkpt lat="48.99151" lon="2.03602">
        <ele>101</ele>
        <time>2022-02-01T10:34:41+01:00</time>
      </trkpt>
      <trkpt lat="48.99173" lon="2.0361">
        <ele>99</ele>
        <time>2022-02-01T10:35:04+01:00</time>
      </trkpt>
      <trkpt lat="48.99194" lon="2.03625">
        <ele>98</ele>
        <time>2022-02-01T10:35:59+01:00</time>
      </trkpt>
      <trkpt lat="48.99217" lon="2.03631">
        <ele>96</ele>
        <time>2022-02-01T10:36:19+01:00</time>
      </trkpt>
      <trkpt lat="48.9924" lon="2.03636">
        <ele>96</ele>
        <time>2022-02-01T10:36:39+01:00</time>
      </trkpt>
      <trkpt lat="48.99263" lon="2.03643">
        <ele>96</ele>
        <time>2022-02-01T10:37:00+01:00</time>
      </trkpt>
      <trkpt lat="48.99286" lon="2.03646">
        <ele>97</ele>
        <time>2022-02-01T10:37:19+01:00</time>
      </trkpt>
      <trkpt lat="48.99308" lon="2.0364">
        <ele>98</ele>
        <time>2022-02-01T10:37:44+01:00</time>
      </trkpt>
      <trkpt lat="48.99332" lon="2.0364">
        <ele>99</ele>
        <time>2022-02-01T10:38:05+01:00</time>
      </trkpt>
      <trkpt lat="48.99355" lon="2.03642">
        <ele>100</ele>
        <time>2022-02-01T10:38:26+01:00</time>
      </trkpt>
      <trkpt lat="48.99378" lon="2.03641">
        <ele>102</ele>
        <time>2022-02-01T10:38:50+01:00</time>
      </trkpt>
      <trkpt lat="48.99402" lon="2.03637">
        <ele>103</ele>
        <time>2022-02-01T10:39:14+01:00</time>
      </trkpt>
      <trkpt lat="48.99426" lon="2.03635">
        <ele>104</ele>
        <time>2022-02-01T10:39:29+01:00</time>
      </trkpt>
      <trkpt lat="48.99449" lon="2.03631">
        <ele>104</ele>
        <time>2022-02-01T10:39:48+01:00</time>
      </trkpt>
      <trkpt lat="48.99472" lon="2.0363">
        <ele>105</ele>
        <time>2022-02-01T10:40:16+01:00</time>
      </trkpt>
      <trkpt lat="48.99495" lon="2.03624">
        <ele>105</ele>
        <time>2022-02-01T10:40:41+01:00</time>
      </trkpt>
      <trkpt lat="48.99517" lon="2.03621">
        <ele>106</ele>
        <time>2022-02-01T10:40:59+01:00</time>
      </trkpt>
      <trkpt lat="48.9954" lon="2.03612">
        <ele>106</ele>
        <time>2022-02-01T10:41:18+01:00</time>
      </trkpt>
      <trkpt lat="48.99563" lon="2.03604">
        <ele>107</ele>
        <time>2022-02-01T10:41:33+01:00</time>
      </trkpt>
      <trkpt lat="48.99586" lon="2.03601">
        <ele>107</ele>
        <time>2022-02-01T10:41:56+01:00</time>
      </trkpt>
      <trkpt lat="48.99608" lon="2.03589">
        <ele>107</ele>
        <time>2022-02-01T10:42:15+01:00</time>
      </trkpt>
      <trkpt lat="48.99629" lon="2.03577">
        <ele>107</ele>
        <time>2022-02-01T10:42:33+01:00</time>
      </trkpt>
      <trkpt lat="48.99651" lon="2.03568">
        <ele>108</ele>
        <time>2022-02-01T10:42:50+01:00</time>
      </trkpt>
      <trkpt lat="48.99673" lon="2.03557">
        <ele>108</ele>
        <time>2022-02-01T10:43:06+01:00</time>
      </trkpt>
      <trkpt lat="48.99695" lon="2.03545">
        <ele>108</ele>
        <time>2022-02-01T10:43:23+01:00</time>
      </trkpt>
      <trkpt lat="48.99717" lon="2.03535">
        <ele>106</ele>
        <time>2022-02-01T10:43:40+01:00</time>
      </trkpt>
      <trkpt lat="48.99739" lon="2.03523">
        <ele>106</ele>
        <time>2022-02-01T10:43:57+01:00</time>
      </trkpt>
      <trkpt lat="48.99762" lon="2.03513">
        <ele>106</ele>
        <time>2022-02-01T10:44:14+01:00</time>
      </trkpt>
      <trkpt lat="48.99786" lon="2.03506">
        <ele>107</ele>
        <time>2022-02-01T10:44:35+01:00</time>
      </trkpt>
      <trkpt lat="48.99808" lon="2.03493">
        <ele>106</ele>
        <time>2022-02-01T10:44:57+01:00</time>
      </trkpt>
      <trkpt lat="48.9983" lon="2.03482">
        <ele>106</ele>
        <time>2022-02-01T10:45:15+01:00</time>
      </trkpt>
      <trkpt lat="48.99852" lon="2.0347">
        <ele>106</ele>
        <time>2022-02-01T10:45:33+01:00</time>
      </trkpt>
      <trkpt lat="48.99874" lon="2.03459">
        <ele>106</ele>
        <time>2022-02-01T10:45:50+01:00</time>
      </trkpt>
      <trkpt lat="48.99897" lon="2.03451">
        <ele>106</ele>
        <time>2022-02-01T10:46:07+01:00</time>
      </trkpt>
      <trkpt lat="48.99919" lon="2.03442">
        <ele>104</ele>
        <time>2022-02-01T10:46:23+01:00</time>
      </trkpt>
      <trkpt lat="48.99941" lon="2.03433">
        <ele>103</ele>
        <time>2022-02-01T10:46:40+01:00</time>
      </trkpt>
      <trkpt lat="48.99962" lon="2.03418">
        <ele>104</ele>
        <time>2022-02-01T10:46:56+01:00</time>
      </trkpt>
      <trkpt lat="48.99973" lon="2.03387">
        <ele>103</ele>
        <time>2022-02-01T10:47:13+01:00</time>
      </trkpt>
      <trkpt lat="48.99978" lon="2.03352">
        <ele>103</ele>
        <time>2022-02-01T10:47:30+01:00</time>
      </trkpt>
      <trkpt lat="48.99983" lon="2.03318">
        <ele>103</ele>
        <time>2022-02-01T10:47:47+01:00</time>
      </trkpt>
      <trkpt lat="48.99988" lon="2.03283">
        <ele>104</ele>
        <time>2022-02-01T10:48:05+01:00</time>
      </trkpt>
      <trkpt lat="48.9999" lon="2.03248">
        <ele>103</ele>
        <time>2022-02-01T10:48:22+01:00</time>
      </trkpt>
      <trkpt lat="48.99993" lon="2.03213">
        <ele>105</ele>
        <time>2022-02-01T10:48:39+01:00</time>
      </trkpt>
      <trkpt lat="49.00001" lon="2.03181">
        <ele>106</ele>
        <time>2022-02-01T10:48:57+01:00</time>
      </trkpt>
      <trkpt lat="49.00023" lon="2.03167">
        <ele>106</ele>
        <time>2022-02-01T10:49:15+01:00</time>
      </trkpt>
      <trkpt lat="49.00044" lon="2.0315">
        <ele>107</ele>
        <time>2022-02-01T10:49:32+01:00</time>
      </trkpt>
      <trkpt lat="49.00062" lon="2.03131">
        <ele>107</ele>
        <time>2022-02-01T10:49:49+01:00</time>
      </trkpt>
      <trkpt lat="49.00083" lon="2.03117">
        <ele>107</ele>
        <time>2022-02-01T10:50:07+01:00</time>
      </trkpt>
      <trkpt lat="49.00105" lon="2.03108">
        <ele>108</ele>
        <time>2022-02-01T10:50:25+01:00</time>
      </trkpt>
      <trkpt lat="49.00126" lon="2.03093">
        <ele>108</ele>
        <time>2022-02-01T10:50:42+01:00</time>
      </trkpt>
      <trkpt lat="49.00148" lon="2.0308">
        <ele>106</ele>
        <time>2022-02-01T10:50:59+01:00</time>
      </trkpt>
      <trkpt lat="49.00169" lon="2.03066">
        <ele>106</ele>
        <time>2022-02-01T10:51:15+01:00</time>
      </trkpt>
      <trkpt lat="49.00189" lon="2.03047">
        <ele>106</ele>
        <time>2022-02-01T10:52:15+01:00</time>
      </trkpt>
      <trkpt lat="49.00208" lon="2.03028">
        <ele>105</ele>
        <time>2022-02-01T10:52:32+01:00</time>
      </trkpt>
      <trkpt lat="49.00226" lon="2.03005">
        <ele>104</ele>
        <time>2022-02-01T10:52:51+01:00</time>
      </trkpt>
      <trkpt lat="49.00244" lon="2.02982">
        <ele>103</ele>
        <time>2022-02-01T10:53:10+01:00</time>
      </trkpt>
      <trkpt lat="49.00262" lon="2.02961">
        <ele>102</ele>
        <time>2022-02-01T10:53:28+01:00</time>
      </trkpt>
      <trkpt lat="49.00282" lon="2.02943">
        <ele>100</ele>
        <time>2022-02-01T10:53:45+01:00</time>
      </trkpt>
      <trkpt lat="49.003" lon="2.02922">
        <ele>98</ele>
        <time>2022-02-01T10:54:04+01:00</time>
      </trkpt>
      <trkpt lat="49.0032" lon="2.02905">
        <ele>96</ele>
        <time>2022-02-01T10:54:22+01:00</time>
      </trkpt>
      <trkpt lat="49.00338" lon="2.02885">
        <ele>95</ele>
        <time>2022-02-01T10:54:41+01:00</time>
      </trkpt>
      <trkpt lat="49.0036" lon="2.0287">
        <ele>97</ele>
        <time>2022-02-01T10:54:58+01:00</time>
      </trkpt>
      <trkpt lat="49.0038" lon="2.02855">
        <ele>97</ele>
        <time>2022-02-01T10:55:15+01:00</time>
      </trkpt>
      <trkpt lat="49.00385" lon="2.02821">
        <ele>100</ele>
        <time>2022-02-01T10:55:41+01:00</time>
      </trkpt>
      <trkpt lat="49.00375" lon="2.0279">
        <ele>100</ele>
        <time>2022-02-01T10:56:00+01:00</time>
      </trkpt>
      <trkpt lat="49.00364" lon="2.02759">
        <ele>101</ele>
        <time>2022-02-01T10:56:18+01:00</time>
      </trkpt>
      <trkpt lat="49.00353" lon="2.0273">
        <ele>103</ele>
        <time>2022-02-01T10:56:37+01:00</time>
      </trkpt>
      <trkpt lat="49.00341" lon="2.027">
        <ele>105</ele>
        <time>2022-02-01T10:56:56+01:00</time>
      </trkpt>
      <trkpt lat="49.00326" lon="2.02673">
        <ele>107</ele>
        <time>2022-02-01T10:57:17+01:00</time>
      </trkpt>
      <trkpt lat="49.00308" lon="2.0265">
        <ele>107</ele>
        <time>2022-02-01T10:57:36+01:00</time>
      </trkpt>
      <trkpt lat="49.0029" lon="2.02629">
        <ele>108</ele>
        <time>2022-02-01T10:57:56+01:00</time>
      </trkpt>
      <trkpt lat="49.0027" lon="2.02612">
        <ele>109</ele>
        <time>2022-02-01T10:58:17+01:00</time>
      </trkpt>
      <trkpt lat="49.0025" lon="2.02595">
        <ele>110</ele>
        <time>2022-02-01T10:58:38+01:00</time>
      </trkpt>
      <trkpt lat="49.00229" lon="2.02584">
        <ele>111</ele>
        <time>2022-02-01T10:58:58+01:00</time>
      </trkpt>
      <trkpt lat="49.00208" lon="2.02566">
        <ele>112</ele>
        <time>2022-02-01T10:59:17+01:00</time>
      </trkpt>
      <trkpt lat="49.00189" lon="2.02547">
        <ele>114</ele>
        <time>2022-02-01T10:59:36+01:00</time>
      </trkpt>
      <trkpt lat="49.00176" lon="2.02519">
        <ele>115</ele>
        <time>2022-02-01T10:59:54+01:00</time>
      </trkpt>
      <trkpt lat="49.00164" lon="2.02488">
        <ele>117</ele>
        <time>2022-02-01T11:01:31+01:00</time>
      </trkpt>
      <trkpt lat="49.00157" lon="2.02455">
        <ele>118</ele>
        <time>2022-02-01T11:01:54+01:00</time>
      </trkpt>
      <trkpt lat="49.00151" lon="2.02421">
        <ele>120</ele>
        <time>2022-02-01T11:02:21+01:00</time>
      </trkpt>
      <trkpt lat="49.00166" lon="2.02395">
        <ele>121</ele>
        <time>2022-02-01T11:04:59+01:00</time>
      </trkpt>
      <trkpt lat="49.0017" lon="2.02361">
        <ele>123</ele>
        <time>2022-02-01T11:05:32+01:00</time>
      </trkpt>
      <trkpt lat="49.00187" lon="2.02337">
        <ele>125</ele>
        <time>2022-02-01T11:06:34+01:00</time>
      </trkpt>
      <trkpt lat="49.00207" lon="2.02318">
        <ele>126</ele>
        <time>2022-02-01T11:07:30+01:00</time>
      </trkpt>
      <trkpt lat="49.00225" lon="2.02293">
        <ele>127</ele>
        <time>2022-02-01T11:07:52+01:00</time>
      </trkpt>
      <trkpt lat="49.00243" lon="2.02271">
        <ele>128</ele>
        <time>2022-02-01T11:08:16+01:00</time>
      </trkpt>
      <trkpt lat="49.00261" lon="2.02249">
        <ele>127</ele>
        <time>2022-02-01T11:08:36+01:00</time>
      </trkpt>
      <trkpt lat="49.00278" lon="2.02228">
        <ele>128</ele>
        <time>2022-02-01T11:09:27+01:00</time>
      </trkpt>
      <trkpt lat="49.00295" lon="2.02203">
        <ele>126</ele>
        <time>2022-02-01T11:09:47+01:00</time>
      </trkpt>
      <trkpt lat="49.00311" lon="2.02178">
        <ele>125</ele>
        <time>2022-02-01T11:10:06+01:00</time>
      </trkpt>
      <trkpt lat="49.00328" lon="2.02155">
        <ele>123</ele>
        <time>2022-02-01T11:10:24+01:00</time>
      </trkpt>
      <trkpt lat="49.00338" lon="2.02124">
        <ele>124</ele>
        <time>2022-02-01T11:10:45+01:00</time>
      </trkpt>
      <trkpt lat="49.00352" lon="2.02097">
        <ele>122</ele>
        <time>2022-02-01T11:11:08+01:00</time>
      </trkpt>
      <trkpt lat="49.00369" lon="2.02073">
        <ele>122</ele>
        <time>2022-02-01T11:11:36+01:00</time>
      </trkpt>
      <trkpt lat="49.00389" lon="2.02057">
        <ele>121</ele>
        <time>2022-02-01T11:12:31+01:00</time>
      </trkpt>
      <trkpt lat="49.00405" lon="2.02031">
        <ele>120</ele>
        <time>2022-02-01T11:12:50+01:00</time>
      </trkpt>
      <trkpt lat="49.00419" lon="2.02003">
        <ele>119</ele>
        <time>2022-02-01T11:13:13+01:00</time>
      </trkpt>
      <trkpt lat="49.00438" lon="2.01982">
        <ele>118</ele>
        <time>2022-02-01T11:13:47+01:00</time>
      </trkpt>
      <trkpt lat="49.00453" lon="2.01954">
        <ele>117</ele>
        <time>2022-02-01T11:14:11+01:00</time>
      </trkpt>
      <trkpt lat="49.00469" lon="2.0193">
        <ele>116</ele>
        <time>2022-02-01T11:14:28+01:00</time>
      </trkpt>
      <trkpt lat="49.00485" lon="2.01905">
        <ele>114</ele>
        <time>2022-02-01T11:14:45+01:00</time>
      </trkpt>
      <trkpt lat="49.00504" lon="2.01886">
        <ele>113</ele>
        <time>2022-02-01T11:15:02+01:00</time>
      </trkpt>
      <trkpt lat="49.00523" lon="2.01866">
        <ele>112</ele>
        <time>2022-02-01T11:15:21+01:00</time>
      </trkpt>
      <trkpt lat="49.00542" lon="2.01846">
        <ele>112</ele>
        <time>2022-02-01T11:15:44+01:00</time>
      </trkpt>
      <trkpt lat="49.00563" lon="2.0183">
        <ele>111</ele>
        <time>2022-02-01T11:16:06+01:00</time>
      </trkpt>
      <trkpt lat="49.00582" lon="2.0181">
        <ele>113</ele>
        <time>2022-02-01T11:16:24+01:00</time>
      </trkpt>
      <trkpt lat="49.00603" lon="2.01797">
        <ele>113</ele>
        <time>2022-02-01T11:17:10+01:00</time>
      </trkpt>
      <trkpt lat="49.00623" lon="2.01783">
        <ele>115</ele>
        <time>2022-02-01T11:17:32+01:00</time>
      </trkpt>
      <trkpt lat="49.00643" lon="2.01763">
        <ele>115</ele>
        <time>2022-02-01T11:18:12+01:00</time>
      </trkpt>
      <trkpt lat="49.00642" lon="2.01727">
        <ele>116</ele>
        <time>2022-02-01T11:18:47+01:00</time>
      </trkpt>
      <trkpt lat="49.00638" lon="2.01693">
        <ele>117</ele>
        <time>2022-02-01T11:19:15+01:00</time>
      </trkpt>
      <trkpt lat="49.00632" lon="2.0166">
        <ele>119</ele>
        <time>2022-02-01T11:19:37+01:00</time>
      </trkpt>
      <trkpt lat="49.00625" lon="2.01626">
        <ele>121</ele>
        <time>2022-02-01T11:19:54+01:00</time>
      </trkpt>
      <trkpt lat="49.00643" lon="2.01604">
        <ele>121</ele>
        <time>2022-02-01T11:20:22+01:00</time>
      </trkpt>
      <trkpt lat="49.00665" lon="2.01593">
        <ele>121</ele>
        <time>2022-02-01T11:20:42+01:00</time>
      </trkpt>
      <trkpt lat="49.00686" lon="2.0158">
        <ele>121</ele>
        <time>2022-02-01T11:21:01+01:00</time>
      </trkpt>
      <trkpt lat="49.00707" lon="2.01566">
        <ele>121</ele>
        <time>2022-02-01T11:21:20+01:00</time>
      </trkpt>
      <trkpt lat="49.0073" lon="2.01557">
        <ele>121</ele>
        <time>2022-02-01T11:21:39+01:00</time>
      </trkpt>
      <trkpt lat="49.00739" lon="2.01526">
        <ele>123</ele>
        <time>2022-02-01T11:23:40+01:00</time>
      </trkpt>
      <trkpt lat="49.00732" lon="2.01492">
        <ele>123</ele>
        <time>2022-02-01T11:23:57+01:00</time>
      </trkpt>
      <trkpt lat="49.00732" lon="2.01457">
        <ele>126</ele>
        <time>2022-02-01T11:24:23+01:00</time>
      </trkpt>
      <trkpt lat="49.00754" lon="2.01468">
        <ele>124</ele>
        <time>2022-02-01T11:24:55+01:00</time>
      </trkpt>
      <trkpt lat="49.00774" lon="2.01484">
        <ele>122</ele>
        <time>2022-02-01T11:25:33+01:00</time>
      </trkpt>
      <trkpt lat="49.0079" lon="2.01508">
        <ele>120</ele>
        <time>2022-02-01T11:25:53+01:00</time>
      </trkpt>
      <trkpt lat="49.00808" lon="2.01532">
        <ele>120</ele>
        <time>2022-02-01T11:26:12+01:00</time>
      </trkpt>
      <trkpt lat="49.00824" lon="2.01557">
        <ele>118</ele>
        <time>2022-02-01T11:26:30+01:00</time>
      </trkpt>
      <trkpt lat="49.00838" lon="2.01584">
        <ele>117</ele>
        <time>2022-02-01T11:26:47+01:00</time>
      </trkpt>
      <trkpt lat="49.00854" lon="2.01609">
        <ele>115</ele>
        <time>2022-02-01T11:27:04+01:00</time>
      </trkpt>
      <trkpt lat="49.0087" lon="2.01634">
        <ele>114</ele>
        <time>2022-02-01T11:27:21+01:00</time>
      </trkpt>
      <trkpt lat="49.00887" lon="2.01658">
        <ele>113</ele>
        <time>2022-02-01T11:27:39+01:00</time>
      </trkpt>
      <trkpt lat="49.00903" lon="2.01683">
        <ele>113</ele>
        <time>2022-02-01T11:27:56+01:00</time>
      </trkpt>
      <trkpt lat="49.00919" lon="2.01707">
        <ele>111</ele>
        <time>2022-02-01T11:28:12+01:00</time>
      </trkpt>
      <trkpt lat="49.00938" lon="2.01728">
        <ele>111</ele>
        <time>2022-02-01T11:28:31+01:00</time>
      </trkpt>
      <trkpt lat="49.00959" lon="2.01742">
        <ele>111</ele>
        <time>2022-02-01T11:28:49+01:00</time>
      </trkpt>
      <trkpt lat="49.00982" lon="2.0175">
        <ele>110</ele>
        <time>2022-02-01T11:29:07+01:00</time>
      </trkpt>
      <trkpt lat="49.01003" lon="2.01763">
        <ele>110</ele>
        <time>2022-02-01T11:29:24+01:00</time>
      </trkpt>
      <trkpt lat="49.01021" lon="2.01786">
        <ele>109</ele>
        <time>2022-02-01T11:29:41+01:00</time>
      </trkpt>
      <trkpt lat="49.01035" lon="2.01813">
        <ele>107</ele>
        <time>2022-02-01T11:29:58+01:00</time>
      </trkpt>
      <trkpt lat="49.01049" lon="2.01841">
        <ele>106</ele>
        <time>2022-02-01T11:30:16+01:00</time>
      </trkpt>
      <trkpt lat="49.01063" lon="2.0187">
        <ele>105</ele>
        <time>2022-02-01T11:30:34+01:00</time>
      </trkpt>
      <trkpt lat="49.01075" lon="2.019">
        <ele>106</ele>
        <time>2022-02-01T11:30:51+01:00</time>
      </trkpt>
      <trkpt lat="49.01089" lon="2.01928">
        <ele>104</ele>
        <time>2022-02-01T11:31:09+01:00</time>
      </trkpt>
      <trkpt lat="49.01103" lon="2.01955">
        <ele>103</ele>
        <time>2022-02-01T11:31:27+01:00</time>
      </trkpt>
      <trkpt lat="49.01117" lon="2.01984">
        <ele>103</ele>
        <time>2022-02-01T11:31:44+01:00</time>
      </trkpt>
      <trkpt lat="49.01139" lon="2.0199">
        <ele>102</ele>
        <time>2022-02-01T11:32:06+01:00</time>
      </trkpt>
      <trkpt lat="49.01159" lon="2.02009">
        <ele>101</ele>
        <time>2022-02-01T11:32:30+01:00</time>
      </trkpt>
      <trkpt lat="49.0117" lon="2.02042">
        <ele>102</ele>
        <time>2022-02-01T11:32:47+01:00</time>
      </trkpt>
      <trkpt lat="49.01181" lon="2.02073">
        <ele>101</ele>
        <time>2022-02-01T11:33:04+01:00</time>
      </trkpt>
      <trkpt lat="49.01192" lon="2.02104">
        <ele>100</ele>
        <time>2022-02-01T11:33:22+01:00</time>
      </trkpt>
      <trkpt lat="49.01202" lon="2.02137">
        <ele>100</ele>
        <time>2022-02-01T11:33:40+01:00</time>
      </trkpt>
      <trkpt lat="49.01213" lon="2.02168">
        <ele>99</ele>
        <time>2022-02-01T11:33:58+01:00</time>
      </trkpt>
      <trkpt lat="49.01223" lon="2.02202">
        <ele>98</ele>
        <time>2022-02-01T11:34:16+01:00</time>
      </trkpt>
      <trkpt lat="49.01234" lon="2.02231">
        <ele>98</ele>
        <time>2022-02-01T11:34:33+01:00</time>
      </trkpt>
      <trkpt lat="49.01233" lon="2.02266">
        <ele>98</ele>
        <time>2022-02-01T11:34:56+01:00</time>
      </trkpt>
      <trkpt lat="49.01216" lon="2.02289">
        <ele>98</ele>
        <time>2022-02-01T11:35:16+01:00</time>
      </trkpt>
      <trkpt lat="49.01209" lon="2.02322">
        <ele>98</ele>
        <time>2022-02-01T11:35:36+01:00</time>
      </trkpt>
      <trkpt lat="49.01223" lon="2.02352">
        <ele>98</ele>
        <time>2022-02-01T11:35:53+01:00</time>
      </trkpt>
      <trkpt lat="49.01236" lon="2.02382">
        <ele>97</ele>
        <time>2022-02-01T11:36:10+01:00</time>
      </trkpt>
      <trkpt lat="49.01248" lon="2.02411">
        <ele>96</ele>
        <time>2022-02-01T11:36:27+01:00</time>
      </trkpt>
      <trkpt lat="49.01262" lon="2.0244">
        <ele>96</ele>
        <time>2022-02-01T11:36:44+01:00</time>
      </trkpt>
      <trkpt lat="49.01273" lon="2.0247">
        <ele>96</ele>
        <time>2022-02-01T11:37:01+01:00</time>
      </trkpt>
      <trkpt lat="49.01286" lon="2.025">
        <ele>95</ele>
        <time>2022-02-01T11:37:18+01:00</time>
      </trkpt>
      <trkpt lat="49.01299" lon="2.02529">
        <ele>95</ele>
        <time>2022-02-01T11:37:36+01:00</time>
      </trkpt>
      <trkpt lat="49.01305" lon="2.02563">
        <ele>95</ele>
        <time>2022-02-01T11:37:54+01:00</time>
      </trkpt>
      <trkpt lat="49.01298" lon="2.02596">
        <ele>95</ele>
        <time>2022-02-01T11:38:13+01:00</time>
      </trkpt>
      <trkpt lat="49.01282" lon="2.02621">
        <ele>95</ele>
        <time>2022-02-01T11:38:33+01:00</time>
      </trkpt>
      <trkpt lat="49.01284" lon="2.02656">
        <ele>94</ele>
        <time>2022-02-01T11:38:57+01:00</time>
      </trkpt>
      <trkpt lat="49.01305" lon="2.02669">
        <ele>94</ele>
        <time>2022-02-01T11:39:21+01:00</time>
      </trkpt>
      <trkpt lat="49.01324" lon="2.02691">
        <ele>93</ele>
        <time>2022-02-01T11:39:40+01:00</time>
      </trkpt>
      <trkpt lat="49.01339" lon="2.02717">
        <ele>92</ele>
        <time>2022-02-01T11:39:56+01:00</time>
      </trkpt>
      <trkpt lat="49.01354" lon="2.02741">
        <ele>91</ele>
        <time>2022-02-01T11:40:14+01:00</time>
      </trkpt>
      <trkpt lat="49.01377" lon="2.02739">
        <ele>91</ele>
        <time>2022-02-01T11:41:00+01:00</time>
      </trkpt>
      <trkpt lat="49.01396" lon="2.02715">
        <ele>89</ele>
        <time>2022-02-01T11:41:21+01:00</time>
      </trkpt>
      <trkpt lat="49.01415" lon="2.02692">
        <ele>90</ele>
        <time>2022-02-01T11:41:37+01:00</time>
      </trkpt>
      <trkpt lat="49.01434" lon="2.02672">
        <ele>91</ele>
        <time>2022-02-01T11:41:53+01:00</time>
      </trkpt>
      <trkpt lat="49.01451" lon="2.02649">
        <ele>89</ele>
        <time>2022-02-01T11:42:09+01:00</time>
      </trkpt>
      <trkpt lat="49.0147" lon="2.02627">
        <ele>88</ele>
        <time>2022-02-01T11:42:26+01:00</time>
      </trkpt>
      <trkpt lat="49.01489" lon="2.02604">
        <ele>86</ele>
        <time>2022-02-01T11:42:44+01:00</time>
      </trkpt>
      <trkpt lat="49.01511" lon="2.02595">
        <ele>82</ele>
        <time>2022-02-01T11:43:06+01:00</time>
      </trkpt>
      <trkpt lat="49.01525" lon="2.02623">
        <ele>82</ele>
        <time>2022-02-01T11:43:26+01:00</time>
      </trkpt>
      <trkpt lat="49.01518" lon="2.02658">
        <ele>82</ele>
        <time>2022-02-01T11:43:47+01:00</time>
      </trkpt>
      <trkpt lat="49.01494" lon="2.02652">
        <ele>86</ele>
        <time>2022-02-01T11:44:12+01:00</time>
      </trkpt>
      <trkpt lat="49.01483" lon="2.02683">
        <ele>88</ele>
        <time>2022-02-01T11:44:32+01:00</time>
      </trkpt>
      <trkpt lat="49.01479" lon="2.02718">
        <ele>88</ele>
        <time>2022-02-01T11:44:57+01:00</time>
      </trkpt>
      <trkpt lat="49.01484" lon="2.02752">
        <ele>88</ele>
        <time>2022-02-01T11:45:16+01:00</time>
      </trkpt>
      <trkpt lat="49.01499" lon="2.02779">
        <ele>87</ele>
        <time>2022-02-01T11:45:36+01:00</time>
      </trkpt>
      <trkpt lat="49.01504" lon="2.02813">
        <ele>86</ele>
        <time>2022-02-01T11:45:55+01:00</time>
      </trkpt>
      <trkpt lat="49.01514" lon="2.02844">
        <ele>85</ele>
        <time>2022-02-01T11:46:14+01:00</time>
      </trkpt>
      <trkpt lat="49.01528" lon="2.02871">
        <ele>84</ele>
        <time>2022-02-01T11:46:32+01:00</time>
      </trkpt>
      <trkpt lat="49.01544" lon="2.02898">
        <ele>83</ele>
        <time>2022-02-01T11:46:50+01:00</time>
      </trkpt>
      <trkpt lat="49.01556" lon="2.02928">
        <ele>81</ele>
        <time>2022-02-01T11:47:09+01:00</time>
      </trkpt>
      <trkpt lat="49.01549" lon="2.02962">
        <ele>80</ele>
        <time>2022-02-01T11:47:31+01:00</time>
      </trkpt>
      <trkpt lat="49.01559" lon="2.02993">
        <ele>77</ele>
        <time>2022-02-01T11:47:50+01:00</time>
      </trkpt>
      <trkpt lat="49.01573" lon="2.03021">
        <ele>73</ele>
        <time>2022-02-01T11:48:11+01:00</time>
      </trkpt>
      <trkpt lat="49.0159" lon="2.03">
        <ele>70</ele>
        <time>2022-02-01T11:49:05+01:00</time>
      </trkpt>
      <trkpt lat="49.01612" lon="2.03013">
        <ele>67</ele>
        <time>2022-02-01T11:50:12+01:00</time>
      </trkpt>
      <trkpt lat="49.01636" lon="2.03014">
        <ele>67</ele>
        <time>2022-02-01T11:50:32+01:00</time>
      </trkpt>
      <trkpt lat="49.01657" lon="2.02999">
        <ele>71</ele>
        <time>2022-02-01T11:50:58+01:00</time>
      </trkpt>
      <trkpt lat="49.01677" lon="2.02983">
        <ele>74</ele>
        <time>2022-02-01T11:52:38+01:00</time>
      </trkpt>
      <trkpt lat="49.01685" lon="2.03015">
        <ele>75</ele>
        <time>2022-02-01T11:53:10+01:00</time>
      </trkpt>
      <trkpt lat="49.01686" lon="2.0305">
        <ele>74</ele>
        <time>2022-02-01T11:53:36+01:00</time>
      </trkpt>
      <trkpt lat="49.01685" lon="2.03084">
        <ele>73</ele>
        <time>2022-02-01T11:54:14+01:00</time>
      </trkpt>
      <trkpt lat="49.01689" lon="2.03118">
        <ele>73</ele>
        <time>2022-02-01T11:54:43+01:00</time>
      </trkpt>
      <trkpt lat="49.0171" lon="2.0313">
        <ele>76</ele>
        <time>2022-02-01T11:55:03+01:00</time>
      </trkpt>
      <trkpt lat="49.0173" lon="2.0315">
        <ele>76</ele>
        <time>2022-02-01T11:55:29+01:00</time>
      </trkpt>
      <trkpt lat="49.01741" lon="2.03181">
        <ele>76</ele>
        <time>2022-02-01T11:55:50+01:00</time>
      </trkpt>
      <trkpt lat="49.01754" lon="2.03209">
        <ele>73</ele>
        <time>2022-02-01T11:56:10+01:00</time>
      </trkpt>
      <trkpt lat="49.01771" lon="2.03233">
        <ele>70</ele>
        <time>2022-02-01T11:56:32+01:00</time>
      </trkpt>
      <trkpt lat="49.01775" lon="2.03267">
        <ele>63</ele>
        <time>2022-02-01T11:58:30+01:00</time>
      </trkpt>
      <trkpt lat="49.01772" lon="2.03301">
        <ele>56</ele>
        <time>2022-02-01T11:59:51+01:00</time>
      </trkpt>
      <trkpt lat="49.01783" lon="2.03333">
        <ele>53</ele>
        <time>2022-02-01T12:00:42+01:00</time>
      </trkpt>
      <trkpt lat="49.01805" lon="2.03325">
        <ele>56</ele>
        <time>2022-02-01T12:01:19+01:00</time>
      </trkpt>
      <trkpt lat="49.0181" lon="2.03292">
        <ele>59</ele>
        <time>2022-02-01T12:01:43+01:00</time>
      </trkpt>
      <trkpt lat="49.01817" lon="2.03258">
        <ele>64</ele>
        <time>2022-02-01T12:02:05+01:00</time>
      </trkpt>
      <trkpt lat="49.01826" lon="2.03226">
        <ele>67</ele>
        <time>2022-02-01T12:02:28+01:00</time>
      </trkpt>
      <trkpt lat="49.01836" lon="2.03195">
        <ele>70</ele>
        <time>2022-02-01T12:02:51+01:00</time>
      </trkpt>
      <trkpt lat="49.0184" lon="2.03162">
        <ele>71</ele>
        <time>2022-02-01T12:03:15+01:00</time>
      </trkpt>
      <trkpt lat="49.01844" lon="2.03127">
        <ele>73</ele>
        <time>2022-02-01T12:03:38+01:00</time>
      </trkpt>
      <trkpt lat="49.01847" lon="2.03093">
        <ele>76</ele>
        <time>2022-02-01T12:04:03+01:00</time>
      </trkpt>
      <trkpt lat="49.01856" lon="2.0306">
        <ele>79</ele>
        <time>2022-02-01T12:04:27+01:00</time>
      </trkpt>
      <trkpt lat="49.0186" lon="2.03025">
        <ele>78</ele>
        <time>2022-02-01T12:04:50+01:00</time>
      </trkpt>
      <trkpt lat="49.01865" lon="2.0299">
        <ele>80</ele>
        <time>2022-02-01T12:05:19+01:00</time>
      </trkpt>
      <trkpt lat="49.01875" lon="2.03022">
        <ele>79</ele>
        <time>2022-02-01T12:06:01+01:00</time>
      </trkpt>
      <trkpt lat="49.01875" lon="2.03058">
        <ele>78</ele>
        <time>2022-02-01T12:06:22+01:00</time>
      </trkpt>
      <trkpt lat="49.01879" lon="2.03092">
        <ele>77</ele>
        <time>2022-02-01T12:06:42+01:00</time>
      </trkpt>
      <trkpt lat="49.01878" lon="2.03127">
        <ele>77</ele>
        <time>2022-02-01T12:07:12+01:00</time>
      </trkpt>
      <trkpt lat="49.01879" lon="2.03162">
        <ele>76</ele>
        <time>2022-02-01T12:07:31+01:00</time>
      </trkpt>
      <trkpt lat="49.01879" lon="2.03197">
        <ele>74</ele>
        <time>2022-02-01T12:07:50+01:00</time>
      </trkpt>
      <trkpt lat="49.01878" lon="2.03232">
        <ele>73</ele>
        <time>2022-02-01T12:08:07+01:00</time>
      </trkpt>
      <trkpt lat="49.01874" lon="2.03266">
        <ele>72</ele>
        <time>2022-02-01T12:08:27+01:00</time>
      </trkpt>
      <trkpt lat="49.01876" lon="2.03301">
        <ele>72</ele>
        <time>2022-02-01T12:08:44+01:00</time>
      </trkpt>
      <trkpt lat="49.01878" lon="2.03337">
        <ele>71</ele>
        <time>2022-02-01T12:09:05+01:00</time>
      </trkpt>
      <trkpt lat="49.01888" lon="2.0337">
        <ele>72</ele>
        <time>2022-02-01T12:09:26+01:00</time>
      </trkpt>
      <trkpt lat="49.01895" lon="2.03402">
        <ele>70</ele>
        <time>2022-02-01T12:09:46+01:00</time>
      </trkpt>
      <trkpt lat="49.0191" lon="2.03431">
        <ele>70</ele>
        <time>2022-02-01T12:10:04+01:00</time>
      </trkpt>
      <trkpt lat="49.0192" lon="2.03462">
        <ele>70</ele>
        <time>2022-02-01T12:10:25+01:00</time>
      </trkpt>
      <trkpt lat="49.0193" lon="2.03494">
        <ele>69</ele>
        <time>2022-02-01T12:10:44+01:00</time>
      </trkpt>
      <trkpt lat="49.01938" lon="2.03529">
        <ele>69</ele>
        <time>2022-02-01T12:11:04+01:00</time>
      </trkpt>
      <trkpt lat="49.01949" lon="2.0356">
        <ele>69</ele>
        <time>2022-02-01T12:11:24+01:00</time>
      </trkpt>
      <trkpt lat="49.01956" lon="2.03592">
        <ele>68</ele>
        <time>2022-02-01T12:11:43+01:00</time>
      </trkpt>
      <trkpt lat="49.01965" lon="2.03624">
        <ele>67</ele>
        <time>2022-02-01T12:12:05+01:00</time>
      </trkpt>
      <trkpt lat="49.01974" lon="2.03657">
        <ele>67</ele>
        <time>2022-02-01T12:12:27+01:00</time>
      </trkpt>
      <trkpt lat="49.0199" lon="2.03683">
        <ele>67</ele>
        <time>2022-02-01T12:12:45+01:00</time>
      </trkpt>
      <trkpt lat="49.02003" lon="2.03711">
        <ele>67</ele>
        <time>2022-02-01T12:13:04+01:00</time>
      </trkpt>
      <trkpt lat="49.02016" lon="2.0374">
        <ele>66</ele>
        <time>2022-02-01T12:13:24+01:00</time>
      </trkpt>
      <trkpt lat="49.02026" lon="2.03771">
        <ele>64</ele>
        <time>2022-02-01T12:13:56+01:00</time>
      </trkpt>
      <trkpt lat="49.02027" lon="2.03806">
        <ele>62</ele>
        <time>2022-02-01T12:14:27+01:00</time>
      </trkpt>
      <trkpt lat="49.02029" lon="2.03841">
        <ele>59</ele>
        <time>2022-02-01T12:15:05+01:00</time>
      </trkpt>
      <trkpt lat="49.02026" lon="2.03875">
        <ele>54</ele>
        <time>2022-02-01T12:15:50+01:00</time>
      </trkpt>
      <trkpt lat="49.02023" lon="2.0391">
        <ele>49</ele>
        <time>2022-02-01T12:16:26+01:00</time>
      </trkpt>
      <trkpt lat="49.0202" lon="2.03944">
        <ele>44</ele>
        <time>2022-02-01T12:16:53+01:00</time>
      </trkpt>
      <trkpt lat="49.02018" lon="2.0398">
        <ele>42</ele>
        <time>2022-02-01T12:17:16+01:00</time>
      </trkpt>
      <trkpt lat="49.01998" lon="2.03995">
        <ele>38</ele>
        <time>2022-02-01T12:17:46+01:00</time>
      </trkpt>
      <trkpt lat="49.01976" lon="2.04002">
        <ele>37</ele>
        <time>2022-02-01T12:18:06+01:00</time>
      </trkpt>
      <trkpt lat="49.01977" lon="2.04038">
        <ele>35</ele>
        <time>2022-02-01T12:18:42+01:00</time>
      </trkpt>
      <trkpt lat="49.01997" lon="2.04055">
        <ele>36</ele>
        <time>2022-02-01T12:19:14+01:00</time>
      </trkpt>
      <trkpt lat="49.02019" lon="2.04043">
        <ele>36</ele>
        <time>2022-02-01T12:19:33+01:00</time>
      </trkpt>
      <trkpt lat="49.02038" lon="2.04026">
        <ele>38</ele>
        <time>2022-02-01T12:19:57+01:00</time>
      </trkpt>
      <trkpt lat="49.0202" lon="2.04048">
        <ele>36</ele>
        <time>2022-02-01T12:20:32+01:00</time>
      </trkpt>
      <trkpt lat="49.02002" lon="2.04069">
        <ele>34</ele>
        <time>2022-02-01T12:20:50+01:00</time>
      </trkpt>
      <trkpt lat="49.01982" lon="2.04087">
        <ele>33</ele>
        <time>2022-02-01T12:21:08+01:00</time>
      </trkpt>
      <trkpt lat="49.01963" lon="2.04106">
        <ele>32</ele>
        <time>2022-02-01T12:21:26+01:00</time>
      </trkpt>
      <trkpt lat="49.01943" lon="2.04125">
        <ele>31</ele>
        <time>2022-02-01T12:21:43+01:00</time>
      </trkpt>
      <trkpt lat="49.01923" lon="2.04144">
        <ele>32</ele>
        <time>2022-02-01T12:22:01+01:00</time>
      </trkpt>
      <trkpt lat="49.01904" lon="2.04163">
        <ele>35</ele>
        <time>2022-02-01T12:22:20+01:00</time>
      </trkpt>
      <trkpt lat="49.01884" lon="2.0418">
        <ele>37</ele>
        <time>2022-02-01T12:22:39+01:00</time>
      </trkpt>
      <trkpt lat="49.01865" lon="2.04199">
        <ele>39</ele>
        <time>2022-02-01T12:22:57+01:00</time>
      </trkpt>
      <trkpt lat="49.01846" lon="2.04219">
        <ele>42</ele>
        <time>2022-02-01T12:23:16+01:00</time>
      </trkpt>
      <trkpt lat="49.01827" lon="2.04238">
        <ele>43</ele>
        <time>2022-02-01T12:23:35+01:00</time>
      </trkpt>
      <trkpt lat="49.01807" lon="2.04255">
        <ele>45</ele>
        <time>2022-02-01T12:23:56+01:00</time>
      </trkpt>
      <trkpt lat="49.01788" lon="2.04273">
        <ele>46</ele>
        <time>2022-02-01T12:24:11+01:00</time>
      </trkpt>
      <trkpt lat="49.01768" lon="2.04292">
        <ele>47</ele>
        <time>2022-02-01T12:24:31+01:00</time>
      </trkpt>
      <trkpt lat="49.0175" lon="2.04313">
        <ele>47</ele>
        <time>2022-02-01T12:24:52+01:00</time>
      </trkpt>
      <trkpt lat="49.01733" lon="2.04336">
        <ele>47</ele>
        <time>2022-02-01T12:25:10+01:00</time>
      </trkpt>
      <trkpt lat="49.01713" lon="2.04356">
        <ele>47</ele>
        <time>2022-02-01T12:25:31+01:00</time>
      </trkpt>
      <trkpt lat="49.01694" lon="2.04377">
        <ele>47</ele>
        <time>2022-02-01T12:25:56+01:00</time>
      </trkpt>
      <trkpt lat="49.01676" lon="2.04401">
        <ele>48</ele>
        <time>2022-02-01T12:26:14+01:00</time>
      </trkpt>
      <trkpt lat="49.01661" lon="2.04428">
        <ele>46</ele>
        <time>2022-02-01T12:26:34+01:00</time>
      </trkpt>
      <trkpt lat="49.01643" lon="2.0445">
        <ele>47</ele>
        <time>2022-02-01T12:26:52+01:00</time>
      </trkpt>
      <trkpt lat="49.01627" lon="2.04475">
        <ele>48</ele>
        <time>2022-02-01T12:27:09+01:00</time>
      </trkpt>
      <trkpt lat="49.0161" lon="2.04499">
        <ele>48</ele>
        <time>2022-02-01T12:27:26+01:00</time>
      </trkpt>
      <trkpt lat="49.01594" lon="2.04524">
        <ele>47</ele>
        <time>2022-02-01T12:27:45+01:00</time>
      </trkpt>
      <trkpt lat="49.01577" lon="2.04548">
        <ele>48</ele>
        <time>2022-02-01T12:28:03+01:00</time>
      </trkpt>
      <trkpt lat="49.01561" lon="2.04573">
        <ele>49</ele>
        <time>2022-02-01T12:28:21+01:00</time>
      </trkpt>
      <trkpt lat="49.01547" lon="2.046">
        <ele>48</ele>
        <time>2022-02-01T12:28:42+01:00</time>
      </trkpt>
      <trkpt lat="49.01532" lon="2.04628">
        <ele>48</ele>
        <time>2022-02-01T12:28:59+01:00</time>
      </trkpt>
      <trkpt lat="49.01517" lon="2.04654">
        <ele>49</ele>
        <time>2022-02-01T12:29:18+01:00</time>
      </trkpt>
      <trkpt lat="49.01504" lon="2.04682">
        <ele>49</ele>
        <time>2022-02-01T12:29:35+01:00</time>
      </trkpt>
      <trkpt lat="49.01492" lon="2.04713">
        <ele>48</ele>
        <time>2022-02-01T12:29:53+01:00</time>
      </trkpt>
      <trkpt lat="49.01484" lon="2.04745">
        <ele>46</ele>
        <time>2022-02-01T12:30:12+01:00</time>
      </trkpt>
      <trkpt lat="49.01473" lon="2.04775">
        <ele>45</ele>
        <time>2022-02-01T12:30:31+01:00</time>
      </trkpt>
      <trkpt lat="49.01464" lon="2.04807">
        <ele>44</ele>
        <time>2022-02-01T12:30:51+01:00</time>
      </trkpt>
      <trkpt lat="49.01452" lon="2.04837">
        <ele>43</ele>
        <time>2022-02-01T12:31:07+01:00</time>
      </trkpt>
      <trkpt lat="49.01438" lon="2.04865">
        <ele>42</ele>
        <time>2022-02-01T12:31:25+01:00</time>
      </trkpt>
      <trkpt lat="49.01422" lon="2.04891">
        <ele>42</ele>
        <time>2022-02-01T12:31:44+01:00</time>
      </trkpt>
      <trkpt lat="49.01405" lon="2.04914">
        <ele>41</ele>
        <time>2022-02-01T12:32:06+01:00</time>
      </trkpt>
      <trkpt lat="49.01388" lon="2.0494">
        <ele>41</ele>
        <time>2022-02-01T12:32:24+01:00</time>
      </trkpt>
      <trkpt lat="49.01372" lon="2.04964">
        <ele>39</ele>
        <time>2022-02-01T12:32:40+01:00</time>
      </trkpt>
      <trkpt lat="49.01355" lon="2.0499">
        <ele>38</ele>
        <time>2022-02-01T12:32:59+01:00</time>
      </trkpt>
      <trkpt lat="49.01339" lon="2.05015">
        <ele>37</ele>
        <time>2022-02-01T12:33:17+01:00</time>
      </trkpt>
      <trkpt lat="49.01324" lon="2.05041">
        <ele>38</ele>
        <time>2022-02-01T12:33:34+01:00</time>
      </trkpt>
      <trkpt lat="49.01306" lon="2.05063">
        <ele>36</ele>
        <time>2022-02-01T12:33:53+01:00</time>
      </trkpt>
      <trkpt lat="49.01289" lon="2.05089">
        <ele>36</ele>
        <time>2022-02-01T12:34:11+01:00</time>
      </trkpt>
      <trkpt lat="49.01273" lon="2.05114">
        <ele>37</ele>
        <time>2022-02-01T12:34:29+01:00</time>
      </trkpt>
      <trkpt lat="49.01255" lon="2.05137">
        <ele>35</ele>
        <time>2022-02-01T12:34:47+01:00</time>
      </trkpt>
      <trkpt lat="49.01237" lon="2.05158">
        <ele>36</ele>
        <time>2022-02-01T12:35:04+01:00</time>
      </trkpt>
      <trkpt lat="49.01216" lon="2.05175">
        <ele>38</ele>
        <time>2022-02-01T12:35:23+01:00</time>
      </trkpt>
      <trkpt lat="49.01195" lon="2.05191">
        <ele>38</ele>
        <time>2022-02-01T12:35:42+01:00</time>
      </trkpt>
      <trkpt lat="49.01171" lon="2.05194">
        <ele>38</ele>
        <time>2022-02-01T12:36:09+01:00</time>
      </trkpt>
      <trkpt lat="49.0115" lon="2.0521">
        <ele>38</ele>
        <time>2022-02-01T12:36:27+01:00</time>
      </trkpt>
      <trkpt lat="49.01128" lon="2.05224">
        <ele>38</ele>
        <time>2022-02-01T12:36:45+01:00</time>
      </trkpt>
      <trkpt lat="49.01107" lon="2.05238">
        <ele>38</ele>
        <time>2022-02-01T12:37:03+01:00</time>
      </trkpt>
      <trkpt lat="49.01087" lon="2.05257">
        <ele>39</ele>
        <time>2022-02-01T12:37:21+01:00</time>
      </trkpt>
      <trkpt lat="49.01066" lon="2.05273">
        <ele>39</ele>
        <time>2022-02-01T12:37:39+01:00</time>
      </trkpt>
      <trkpt lat="49.01045" lon="2.05285">
        <ele>39</ele>
        <time>2022-02-01T12:37:58+01:00</time>
      </trkpt>
      <trkpt lat="49.01023" lon="2.05298">
        <ele>39</ele>
        <time>2022-02-01T12:38:16+01:00</time>
      </trkpt>
      <trkpt lat="49.01001" lon="2.05308">
        <ele>39</ele>
        <time>2022-02-01T12:38:33+01:00</time>
      </trkpt>
      <trkpt lat="49.00979" lon="2.05319">
        <ele>40</ele>
        <time>2022-02-01T12:38:50+01:00</time>
      </trkpt>
      <trkpt lat="49.00957" lon="2.05328">
        <ele>39</ele>
        <time>2022-02-01T12:39:07+01:00</time>
      </trkpt>
      <trkpt lat="49.00934" lon="2.05336">
        <ele>39</ele>
        <time>2022-02-01T12:39:26+01:00</time>
      </trkpt>
      <trkpt lat="49.00911" lon="2.05344">
        <ele>38</ele>
        <time>2022-02-01T12:39:44+01:00</time>
      </trkpt>
      <trkpt lat="49.0089" lon="2.05356">
        <ele>38</ele>
        <time>2022-02-01T12:40:00+01:00</time>
      </trkpt>
      <trkpt lat="49.00869" lon="2.05369">
        <ele>38</ele>
        <time>2022-02-01T12:40:17+01:00</time>
      </trkpt>
      <trkpt lat="49.00848" lon="2.05383">
        <ele>38</ele>
        <time>2022-02-01T12:40:34+01:00</time>
      </trkpt>
      <trkpt lat="49.00826" lon="2.05397">
        <ele>38</ele>
        <time>2022-02-01T12:40:53+01:00</time>
      </trkpt>
      <trkpt lat="49.00805" lon="2.05413">
        <ele>37</ele>
        <time>2022-02-01T12:41:10+01:00</time>
      </trkpt>
      <trkpt lat="49.00784" lon="2.05426">
        <ele>37</ele>
        <time>2022-02-01T12:41:27+01:00</time>
      </trkpt>
      <trkpt lat="49.00763" lon="2.05439">
        <ele>36</ele>
        <time>2022-02-01T12:41:46+01:00</time>
      </trkpt>
      <trkpt lat="49.00742" lon="2.05454">
        <ele>35</ele>
        <time>2022-02-01T12:42:04+01:00</time>
      </trkpt>
      <trkpt lat="49.0072" lon="2.05469">
        <ele>34</ele>
        <time>2022-02-01T12:42:19+01:00</time>
      </trkpt>
      <trkpt lat="49.00699" lon="2.05483">
        <ele>34</ele>
        <time>2022-02-01T12:42:35+01:00</time>
      </trkpt>
      <trkpt lat="49.00678" lon="2.05496">
        <ele>33</ele>
        <time>2022-02-01T12:42:52+01:00</time>
      </trkpt>
      <trkpt lat="49.00659" lon="2.05513">
        <ele>32</ele>
        <time>2022-02-01T12:43:10+01:00</time>
      </trkpt>
      <trkpt lat="49.00638" lon="2.0553">
        <ele>32</ele>
        <time>2022-02-01T12:43:28+01:00</time>
      </trkpt>
      <trkpt lat="49.00618" lon="2.05545">
        <ele>31</ele>
        <time>2022-02-01T12:43:48+01:00</time>
      </trkpt>
      <trkpt lat="49.00598" lon="2.05563">
        <ele>32</ele>
        <time>2022-02-01T12:44:37+01:00</time>
      </trkpt>
      <trkpt lat="49.00578" lon="2.05583">
        <ele>32</ele>
        <time>2022-02-01T12:45:04+01:00</time>
      </trkpt>
      <trkpt lat="49.00558" lon="2.05599">
        <ele>33</ele>
        <time>2022-02-01T12:45:21+01:00</time>
      </trkpt>
      <trkpt lat="49.00537" lon="2.05616">
        <ele>33</ele>
        <time>2022-02-01T12:45:40+01:00</time>
      </trkpt>
      <trkpt lat="49.00515" lon="2.0563">
        <ele>33</ele>
        <time>2022-02-01T12:46:00+01:00</time>
      </trkpt>
      <trkpt lat="49.00493" lon="2.0564">
        <ele>32</ele>
        <time>2022-02-01T12:46:21+01:00</time>
      </trkpt>
      <trkpt lat="49.00471" lon="2.05652">
        <ele>33</ele>
        <time>2022-02-01T12:46:39+01:00</time>
      </trkpt>
      <trkpt lat="49.0045" lon="2.05667">
        <ele>33</ele>
        <time>2022-02-01T12:46:57+01:00</time>
      </trkpt>
      <trkpt lat="49.00428" lon="2.05678">
        <ele>31</ele>
        <time>2022-02-01T12:47:15+01:00</time>
      </trkpt>
      <trkpt lat="49.00406" lon="2.05693">
        <ele>34</ele>
        <time>2022-02-01T12:47:34+01:00</time>
      </trkpt>
      <trkpt lat="49.00385" lon="2.05709">
        <ele>32</ele>
        <time>2022-02-01T12:47:53+01:00</time>
      </trkpt>
      <trkpt lat="49.00363" lon="2.05723">
        <ele>33</ele>
        <time>2022-02-01T12:48:11+01:00</time>
      </trkpt>
      <trkpt lat="49.00342" lon="2.05736">
        <ele>32</ele>
        <time>2022-02-01T12:48:30+01:00</time>
      </trkpt>
      <trkpt lat="49.00321" lon="2.05747">
        <ele>32</ele>
        <time>2022-02-01T12:48:47+01:00</time>
      </trkpt>
      <trkpt lat="49.003" lon="2.05763">
        <ele>32</ele>
        <time>2022-02-01T12:49:06+01:00</time>
      </trkpt>
      <trkpt lat="49.00279" lon="2.05777">
        <ele>32</ele>
        <time>2022-02-01T12:49:24+01:00</time>
      </trkpt>
      <trkpt lat="49.00259" lon="2.05795">
        <ele>32</ele>
        <time>2022-02-01T12:49:42+01:00</time>
      </trkpt>
      <trkpt lat="49.00237" lon="2.05808">
        <ele>31</ele>
        <time>2022-02-01T12:49:59+01:00</time>
      </trkpt>
      <trkpt lat="49.00215" lon="2.05824">
        <ele>33</ele>
        <time>2022-02-01T12:50:18+01:00</time>
      </trkpt>
      <trkpt lat="49.00196" lon="2.05842">
        <ele>31</ele>
        <time>2022-02-01T12:50:40+01:00</time>
      </trkpt>
      <trkpt lat="49.00177" lon="2.05863">
        <ele>31</ele>
        <time>2022-02-01T12:50:59+01:00</time>
      </trkpt>
      <trkpt lat="49.00157" lon="2.05884">
        <ele>31</ele>
        <time>2022-02-01T12:51:17+01:00</time>
      </trkpt>
      <trkpt lat="49.00139" lon="2.05906">
        <ele>30</ele>
        <time>2022-02-01T12:51:38+01:00</time>
      </trkpt>
      <trkpt lat="49.00123" lon="2.05931">
        <ele>31</ele>
        <time>2022-02-01T12:51:55+01:00</time>
      </trkpt>
      <trkpt lat="49.00105" lon="2.05953">
        <ele>30</ele>
        <time>2022-02-01T12:52:13+01:00</time>
      </trkpt>
      <trkpt lat="49.00089" lon="2.05976">
        <ele>29</ele>
        <time>2022-02-01T12:52:34+01:00</time>
      </trkpt>
      <trkpt lat="49.00081" lon="2.06009">
        <ele>28</ele>
        <time>2022-02-01T12:52:55+01:00</time>
      </trkpt>
      <trkpt lat="49.0006" lon="2.06021">
        <ele>28</ele>
        <time>2022-02-01T12:53:33+01:00</time>
      </trkpt>
      <trkpt lat="49.00037" lon="2.06029">
        <ele>28</ele>
        <time>2022-02-01T12:53:51+01:00</time>
      </trkpt>
      <trkpt lat="49.00015" lon="2.06039">
        <ele>28</ele>
        <time>2022-02-01T12:54:09+01:00</time>
      </trkpt>
    </trkseg>
  </trk>
</gpx>